Time;durP1;ratioP1;P1;durP2;ratioP2;P2;SDS_P1;SDS_P2;PMS_P1;PMS_P2;Temp;Humidity;BMP_temperature;BMP_pressure;BME280_temperature;BME280_humidity;BME280_pressure;Samples;Min_cycle;Max_cycle;Signal;HPM_P1;HPM_P2
2021/06/25 00:01:07;;;;;;;38.00;8.40;;;;;;;;;;5075050;28;20032;-45
2021/06/25 00:03:33;;;;;;;23.42;5.90;;;;;;;;;;5075306;28;20020;-45
2021/06/25 00:06:01;;;;;;;30.88;6.30;;;;;;;;;;5075189;28;20450;-45
2021/06/25 00:08:29;;;;;;;37.47;9.75;;;;;;;;;;5075008;28;20040;-45
2021/06/25 00:10:55;;;;;;;34.55;10.60;;;;;;;;;;5074960;28;20476;-45
2021/06/25 00:13:22;;;;;;;32.25;6.97;;;;;;;;;;5074864;28;20032;-45
2021/06/25 00:15:48;;;;;;;27.63;6.35;;;;;;;;;;5075005;28;20021;-45
2021/06/25 00:18:16;;;;;;;39.05;7.15;;;;;;;;;;5075036;28;20078;-44
2021/06/25 00:20:42;;;;;;;24.73;7.30;;;;;;;;;;5075063;28;20365;-46
2021/06/25 00:23:08;;;;;;;21.90;5.90;;;;;;;;;;5074740;28;20097;-45
2021/06/25 00:25:34;;;;;;;30.50;9.05;;;;;;;;;;5074796;28;20487;-44
2021/06/25 00:28:00;;;;;;;38.35;9.75;;;;;;;;;;5074738;28;20024;-44
2021/06/25 00:30:26;;;;;;;29.65;6.75;;;;;;;;;;5074685;28;20029;-45
2021/06/25 00:32:52;;;;;;;27.60;5.43;;;;;;;;;;5074679;28;20047;-45
2021/06/25 00:35:19;;;;;;;36.78;12.60;;;;;;;;;;5074642;28;20107;-44
2021/06/25 00:37:48;;;;;;;29.60;7.90;;;;;;;;;;5074587;28;20517;-45
2021/06/25 00:40:14;;;;;;;36.33;12.25;;;;;;;;;;5074524;28;20052;-44
2021/06/25 00:42:40;;;;;;;37.08;12.88;;;;;;;;;;5074318;28;20436;-44
2021/06/25 00:45:14;;;;;;;25.83;6.10;;;;;;;;;;5074324;28;20143;-45
2021/06/25 00:47:40;;;;;;;28.25;5.88;;;;;;;;;;5074209;28;20434;-44
2021/06/25 00:50:06;;;;;;;31.08;7.75;;;;;;;;;;5074265;28;20020;-42
2021/06/25 00:52:33;;;;;;;36.20;7.30;;;;;;;;;;5074153;28;20021;-45
2021/06/25 00:54:59;;;;;;;35.75;13.77;;;;;;;;;;5074416;28;20058;-43
2021/06/25 00:57:25;;;;;;;36.25;10.63;;;;;;;;;;5074204;28;20099;-43
2021/06/25 00:59:51;;;;;;;27.33;6.00;;;;;;;;;;5074201;28;20499;-43
2021/06/25 01:02:17;;;;;;;21.92;5.65;;;;;;;;;;5074204;28;20047;-43
2021/06/25 01:04:43;;;;;;;44.03;15.23;;;;;;;;;;5074153;28;20021;-44
2021/06/25 01:07:10;;;;;;;32.67;6.88;;;;;;;;;;5073898;28;20032;-43
2021/06/25 01:09:37;;;;;;;35.13;9.38;;;;;;;;;;5073981;28;20032;-44
2021/06/25 01:12:06;;;;;;;29.35;6.72;;;;;;;;;;5073961;28;20025;-43
2021/06/25 01:14:33;;;;;;;30.08;6.60;;;;;;;;;;5073543;28;20040;-43
2021/06/25 01:17:00;;;;;;;30.90;6.63;;;;;;;;;;5073663;28;20025;-44
2021/06/25 01:19:26;;;;;;;26.73;5.32;;;;;;;;;;5073772;28;20032;-43
2021/06/25 01:21:52;;;;;;;22.40;5.20;;;;;;;;;;5073459;28;20029;-44
2021/06/25 01:24:18;;;;;;;24.25;5.70;;;;;;;;;;5073773;28;20032;-44
2021/06/25 01:26:44;;;;;;;25.13;5.25;;;;;;;;;;5073841;28;20025;-46
2021/06/25 01:29:10;;;;;;;21.33;5.45;;;;;;;;;;5073735;28;20023;-45
2021/06/25 01:31:36;;;;;;;30.13;5.53;;;;;;;;;;5073690;28;20021;-45
2021/06/25 01:34:05;;;;;;;27.33;5.28;;;;;;;;;;5073868;28;20549;-44
2021/06/25 01:36:31;;;;;;;22.15;5.90;;;;;;;;;;5073547;28;20472;-44
2021/06/25 01:38:59;;;;;;;21.55;5.00;;;;;;;;;;5073244;28;20052;-48
2021/06/25 01:41:25;;;;;;;26.08;4.57;;;;;;;;;;5073422;28;20029;-44
2021/06/25 01:43:52;;;;;;;21.17;5.20;;;;;;;;;;5073170;28;20056;-43
2021/06/25 01:46:18;;;;;;;25.23;4.95;;;;;;;;;;5073237;28;20040;-43
2021/06/25 01:48:44;;;;;;;23.35;5.07;;;;;;;;;;5073250;28;20020;-43
2021/06/25 01:51:11;;;;;;;27.48;4.95;;;;;;;;;;5073194;28;20488;-43
2021/06/25 01:53:37;;;;;;;21.65;5.20;;;;;;;;;;5073136;28;20043;-43
2021/06/25 01:56:04;;;;;;;18.65;4.75;;;;;;;;;;5072193;28;20033;-43
2021/06/25 01:58:31;;;;;;;27.27;5.47;;;;;;;;;;5072956;28;20028;-43
2021/06/25 02:01:05;;;;;;;24.17;5.03;;;;;;;;;;5073053;28;20539;-43
2021/06/25 02:03:32;;;;;;;25.85;5.70;;;;;;;;;;5073052;28;20028;-43
2021/06/25 02:05:58;;;;;;;23.10;4.72;;;;;;;;;;5073098;28;20021;-43
2021/06/25 02:08:24;;;;;;;25.98;5.15;;;;;;;;;;5073073;28;20031;-43
2021/06/25 02:10:51;;;;;;;18.08;5.28;;;;;;;;;;5073303;28;20020;-44
2021/06/25 02:13:17;;;;;;;36.10;5.75;;;;;;;;;;5072761;28;20021;-43
2021/06/25 02:15:43;;;;;;;29.35;5.05;;;;;;;;;;5072932;28;20021;-43
2021/06/25 02:18:09;;;;;;;34.58;4.90;;;;;;;;;;5073117;28;20020;-43
2021/06/25 02:20:36;;;;;;;20.63;5.68;;;;;;;;;;5073273;28;20025;-43
2021/06/25 02:23:03;;;;;;;31.98;5.47;;;;;;;;;;5072976;28;20163;-44
2021/06/25 02:25:29;;;;;;;28.15;6.00;;;;;;;;;;5072872;28;20524;-43
2021/06/25 02:27:56;;;;;;;27.30;5.40;;;;;;;;;;5072849;28;20039;-44
2021/06/25 02:30:22;;;;;;;22.38;5.13;;;;;;;;;;5072989;28;20388;-43
2021/06/25 02:32:48;;;;;;;24.40;4.68;;;;;;;;;;5073054;28;20368;-43
2021/06/25 02:35:15;;;;;;;27.33;5.82;;;;;;;;;;5072903;28;20060;-44
2021/06/25 02:37:41;;;;;;;22.52;5.57;;;;;;;;;;5072741;28;20025;-43
2021/06/25 02:40:08;;;;;;;22.27;5.28;;;;;;;;;;5072792;28;20017;-43
2021/06/25 02:42:34;;;;;;;26.02;4.95;;;;;;;;;;5072575;28;20052;-44
2021/06/25 02:45:00;;;;;;;19.23;5.00;;;;;;;;;;5071745;28;20068;-44
2021/06/25 02:47:26;;;;;;;24.95;5.55;;;;;;;;;;5072590;28;20062;-43
2021/06/25 02:49:52;;;;;;;28.25;5.15;;;;;;;;;;5072562;28;20021;-43
2021/06/25 02:52:18;;;;;;;27.45;5.57;;;;;;;;;;5072510;28;20054;-43
2021/06/25 02:54:45;;;;;;;22.98;5.50;;;;;;;;;;5072580;28;20521;-44
2021/06/25 02:57:13;;;;;;;21.33;5.35;;;;;;;;;;5072669;28;20020;-44
2021/06/25 02:59:39;;;;;;;21.58;5.10;;;;;;;;;;5072540;28;20023;-44
2021/06/25 03:02:05;;;;;;;24.83;5.38;;;;;;;;;;5072315;28;20037;-43
2021/06/25 03:04:33;;;;;;;30.50;5.55;;;;;;;;;;5072500;28;20024;-43
2021/06/25 03:07:00;;;;;;;24.48;5.82;;;;;;;;;;5072388;28;20025;-44
2021/06/25 03:09:26;;;;;;;23.08;5.18;;;;;;;;;;5072603;28;20346;-43
2021/06/25 03:11:52;;;;;;;28.20;8.75;;;;;;;;;;5074695;28;20025;-43
2021/06/25 03:14:18;;;;;;;34.42;7.00;;;;;;;;;;5076139;28;20526;-43
2021/06/25 03:16:44;;;;;;;27.20;9.55;;;;;;;;;;5076173;28;20029;-44
2021/06/25 03:19:12;;;;;;;30.80;10.35;;;;;;;;;;5076110;28;20021;-44
2021/06/25 03:21:38;;;;;;;32.78;7.90;;;;;;;;;;5075877;28;20033;-43
2021/06/25 03:24:05;;;;;;;27.83;9.27;;;;;;;;;;5075944;28;20441;-44
2021/06/25 03:26:31;;;;;;;29.38;8.20;;;;;;;;;;5075865;28;20028;-44
2021/06/25 03:28:57;;;;;;;24.33;6.65;;;;;;;;;;5075903;28;20430;-43
2021/06/25 03:31:23;;;;;;;27.45;5.88;;;;;;;;;;5075920;28;20023;-43
2021/06/25 03:33:49;;;;;;;28.52;6.57;;;;;;;;;;5075757;28;20028;-43
2021/06/25 03:36:15;;;;;;;34.92;7.38;;;;;;;;;;5075678;28;20025;-43
2021/06/25 03:38:41;;;;;;;26.98;6.63;;;;;;;;;;5075577;28;20020;-44
2021/06/25 03:41:07;;;;;;;20.25;5.45;;;;;;;;;;5075661;28;20052;-43
2021/06/25 03:43:34;;;;;;;19.02;5.45;;;;;;;;;;5075540;28;20038;-43
2021/06/25 03:46:00;;;;;;;22.65;4.80;;;;;;;;;;5075585;28;20380;-44
2021/06/25 03:48:26;;;;;;;28.17;6.07;;;;;;;;;;5075513;28;20364;-43
2021/06/25 03:50:52;;;;;;;19.50;5.22;;;;;;;;;;5075806;28;20059;-43
2021/06/25 03:53:20;;;;;;;25.27;5.90;;;;;;;;;;5075404;28;20100;-44
2021/06/25 03:58:33;;;;;;;23.80;5.47;;;;;;;;;;5075830;28;20043;-43
2021/06/25 04:00:59;;;;;;;24.38;5.88;;;;;;;;;;5075349;28;20053;-43
2021/06/25 04:03:25;;;;;;;33.47;5.95;;;;;;;;;;5075237;28;20086;-43
2021/06/25 04:05:52;;;;;;;21.40;6.32;;;;;;;;;;5075325;28;20021;-43
2021/06/25 04:08:20;;;;;;;29.00;6.07;;;;;;;;;;5075106;28;20423;-43
2021/06/25 04:10:46;;;;;;;40.50;6.90;;;;;;;;;;5075271;28;20029;-43
2021/06/25 04:13:13;;;;;;;30.83;6.20;;;;;;;;;;5075127;28;20094;-43
2021/06/25 04:15:39;;;;;;;27.67;6.78;;;;;;;;;;5075299;28;20043;-43
2021/06/25 04:18:05;;;;;;;26.23;5.95;;;;;;;;;;5074840;28;20035;-43
2021/06/25 04:20:31;;;;;;;29.88;6.43;;;;;;;;;;5074901;28;20097;-44
2021/06/25 04:22:57;;;;;;;28.63;6.53;;;;;;;;;;5074571;28;20103;-44
2021/06/25 04:25:23;;;;;;;23.60;5.93;;;;;;;;;;5074961;28;20024;-43
2021/06/25 04:27:50;;;;;;;31.23;6.15;;;;;;;;;;5074937;28;20031;-44
2021/06/25 04:30:16;;;;;;;30.58;6.20;;;;;;;;;;5074952;28;20078;-45
2021/06/25 04:32:43;;;;;;;23.75;5.72;;;;;;;;;;5074933;28;20029;-45
2021/06/25 04:35:10;;;;;;;25.70;6.28;;;;;;;;;;5074499;28;20023;-44
2021/06/25 04:37:36;;;;;;;26.00;5.40;;;;;;;;;;5074598;28;20029;-44
2021/06/25 04:40:02;;;;;;;30.83;5.97;;;;;;;;;;5074663;28;20099;-44
2021/06/25 04:42:28;;;;;;;31.02;6.68;;;;;;;;;;5074354;28;20048;-44
2021/06/25 04:44:54;;;;;;;39.97;7.72;;;;;;;;;;5074541;28;20028;-45
2021/06/25 04:47:20;;;;;;;31.60;7.07;;;;;;;;;;5074366;28;20060;-44
2021/06/25 04:49:47;;;;;;;17.65;5.72;;;;;;;;;;5074165;28;20024;-44
2021/06/25 04:52:13;;;;;;;31.17;5.72;;;;;;;;;;5074300;28;20033;-44
2021/06/25 04:54:39;;;;;;;33.75;6.65;;;;;;;;;;5074413;28;20361;-45
2021/06/25 04:57:05;;;;;;;26.00;5.68;;;;;;;;;;5074258;28;20024;-44
2021/06/25 04:59:34;;;;;;;25.45;5.70;;;;;;;;;;5074364;28;20104;-43
2021/06/25 05:02:00;;;;;;;23.65;7.85;;;;;;;;;;5073925;28;20032;-44
2021/06/25 05:04:26;;;;;;;29.77;6.13;;;;;;;;;;5074365;28;20499;-44
2021/06/25 05:06:52;;;;;;;26.77;5.28;;;;;;;;;;5074191;28;20066;-44
2021/06/25 05:09:18;;;;;;;25.90;5.97;;;;;;;;;;5074377;28;20037;-43
2021/06/25 05:11:44;;;;;;;24.55;5.65;;;;;;;;;;5074366;28;20043;-45
2021/06/25 05:14:10;;;;;;;40.55;6.22;;;;;;;;;;5074030;28;20071;-45
2021/06/25 05:16:36;;;;;;;31.25;5.22;;;;;;;;;;5073934;28;20534;-45
2021/06/25 05:19:03;;;;;;;27.05;5.07;;;;;;;;;;5074214;28;20021;-45
2021/06/25 05:21:29;;;;;;;25.80;5.90;;;;;;;;;;5074111;28;20515;-45
2021/06/25 05:23:55;;;;;;;27.75;6.07;;;;;;;;;;5074161;28;20032;-45
2021/06/25 05:26:25;;;;;;;29.10;6.00;;;;;;;;;;5074068;28;20073;-44
2021/06/25 05:28:52;;;;;;;19.00;4.82;;;;;;;;;;5073735;28;20028;-44
2021/06/25 05:31:18;;;;;;;27.13;5.90;;;;;;;;;;5073756;28;20032;-45
2021/06/25 05:33:44;;;;;;;21.23;4.70;;;;;;;;;;5073067;28;20025;-44
2021/06/25 05:36:10;;;;;;;29.33;5.32;;;;;;;;;;5073442;28;20489;-44
2021/06/25 05:38:38;;;;;;;26.13;4.68;;;;;;;;;;5073703;28;20033;-44
2021/06/25 05:41:04;;;;;;;19.98;4.43;;;;;;;;;;5073611;28;20111;-44
2021/06/25 05:43:31;;;;;;;21.10;4.53;;;;;;;;;;5073566;28;20039;-44
2021/06/25 05:45:59;;;;;;;22.20;4.47;;;;;;;;;;5073672;28;20543;-45
2021/06/25 05:48:25;;;;;;;24.73;4.57;;;;;;;;;;5073381;28;20056;-44
2021/06/25 05:50:52;;;;;;;19.15;4.55;;;;;;;;;;5072214;28;20043;-45
2021/06/25 05:53:18;;;;;;;22.23;5.03;;;;;;;;;;5073542;28;20035;-45
2021/06/25 05:55:44;;;;;;;17.30;4.13;;;;;;;;;;5073414;28;20025;-44
2021/06/25 05:58:11;;;;;;;18.42;5.22;;;;;;;;;;5073463;28;20021;-43
2021/06/25 06:00:38;;;;;;;22.17;5.38;;;;;;;;;;5073343;28;20025;-44
2021/06/25 06:03:04;;;;;;;34.67;9.93;;;;;;;;;;5073251;28;20036;-45
2021/06/25 06:05:30;;;;;;;28.98;12.90;;;;;;;;;;5073154;28;20020;-45
2021/06/25 06:07:56;;;;;;;21.23;7.22;;;;;;;;;;5073320;28;20036;-44
2021/06/25 06:10:22;;;;;;;27.73;6.47;;;;;;;;;;5073560;28;20020;-44
2021/06/25 06:12:48;;;;;;;39.90;16.00;;;;;;;;;;5073188;28;20111;-43
2021/06/25 06:15:17;;;;;;;32.17;10.90;;;;;;;;;;5072915;28;20057;-43
2021/06/25 06:17:47;;;;;;;22.77;7.82;;;;;;;;;;5072852;28;20025;-45
2021/06/25 06:20:18;;;;;;;25.17;7.05;;;;;;;;;;5072950;28;20028;-43
2021/06/25 06:33:45;;;;;;;19.45;4.88;;;;;;;;;;5072929;28;20028;-45
2021/06/25 06:36:21;;;;;;;18.17;4.18;;;;;;;;;;5072862;28;20063;-43
2021/06/25 06:38:48;;;;;;;18.75;4.15;;;;;;;;;;5072773;28;20162;-43
2021/06/25 06:41:14;;;;;;;31.65;4.93;;;;;;;;;;5072790;28;20461;-43
2021/06/25 06:43:41;;;;;;;22.75;5.47;;;;;;;;;;5072567;28;20457;-43
2021/06/25 06:46:09;;;;;;;25.88;5.00;;;;;;;;;;5075524;28;20469;-44
2021/06/25 06:48:37;;;;;;;23.80;4.70;;;;;;;;;;5076903;28;20021;-44
2021/06/25 06:51:06;;;;;;;11.55;4.05;;;;;;;;;;5076865;28;20051;-42
2021/06/25 06:53:35;;;;;;;13.93;3.30;;;;;;;;;;5076760;28;20059;-44
2021/06/25 06:56:01;;;;;;;23.55;5.30;;;;;;;;;;5076622;28;20442;-44
2021/06/25 06:58:27;;;;;;;21.45;4.22;;;;;;;;;;5076787;28;20021;-43
2021/06/25 07:00:54;;;;;;;16.35;3.97;;;;;;;;;;5075561;28;20028;-44
2021/06/25 07:03:20;;;;;;;25.25;4.03;;;;;;;;;;5076441;28;20115;-43
2021/06/25 07:05:46;;;;;;;19.88;4.45;;;;;;;;;;5075165;28;20029;-44
2021/06/25 07:08:12;;;;;;;17.40;4.32;;;;;;;;;;5076373;28;20036;-44
2021/06/25 07:10:38;;;;;;;26.95;5.00;;;;;;;;;;5076393;28;20384;-44
2021/06/25 07:13:04;;;;;;;22.20;4.47;;;;;;;;;;5076368;28;20085;-42
2021/06/25 07:15:32;;;;;;;13.95;3.88;;;;;;;;;;5076059;28;20052;-41
2021/06/25 07:18:00;;;;;;;17.23;4.60;;;;;;;;;;5076173;28;20035;-43
2021/06/25 07:20:26;;;;;;;14.43;4.80;;;;;;;;;;5076250;28;20082;-44
2021/06/25 07:22:53;;;;;;;16.60;3.90;;;;;;;;;;5076050;28;20144;-44
2021/06/25 07:25:19;;;;;;;18.38;4.78;;;;;;;;;;5076130;28;20522;-44
2021/06/25 07:27:45;;;;;;;14.27;4.28;;;;;;;;;;5076157;28;20365;-44
2021/06/25 07:30:13;;;;;;;17.48;3.97;;;;;;;;;;5074790;28;20026;-42
2021/06/25 07:32:39;;;;;;;22.60;5.05;;;;;;;;;;5075823;28;20051;-42
2021/06/25 07:35:05;;;;;;;18.80;4.50;;;;;;;;;;5075888;28;20016;-43
2021/06/25 07:37:32;;;;;;;22.17;5.18;;;;;;;;;;5076042;28;20025;-44
2021/06/25 07:39:58;;;;;;;19.65;5.93;;;;;;;;;;5075820;28;20025;-44
2021/06/25 07:42:25;;;;;;;19.20;4.63;;;;;;;;;;5075853;28;20472;-44
2021/06/25 07:44:51;;;;;;;15.20;4.53;;;;;;;;;;5075691;28;20025;-44
2021/06/25 07:47:18;;;;;;;18.77;4.75;;;;;;;;;;5075696;28;20035;-43
2021/06/25 07:49:44;;;;;;;17.38;4.55;;;;;;;;;;5075821;28;20024;-44
2021/06/25 07:52:11;;;;;;;18.10;5.47;;;;;;;;;;5075761;28;20023;-44
2021/06/25 07:54:37;;;;;;;18.35;4.60;;;;;;;;;;5075695;28;20488;-44
2021/06/25 07:57:03;;;;;;;19.48;4.10;;;;;;;;;;5075206;28;20024;-44
2021/06/25 07:59:29;;;;;;;20.00;4.78;;;;;;;;;;5075636;28;20074;-44
2021/06/25 08:01:56;;;;;;;16.58;3.65;;;;;;;;;;5075604;28;20142;-44
2021/06/25 08:04:25;;;;;;;17.02;4.18;;;;;;;;;;5075362;28;20020;-45
2021/06/25 08:06:51;;;;;;;20.95;3.95;;;;;;;;;;5075259;28;20111;-43
2021/06/25 08:09:17;;;;;;;24.25;4.82;;;;;;;;;;5075346;28;20029;-44
2021/06/25 08:11:44;;;;;;;17.88;4.15;;;;;;;;;;5075563;28;20031;-44
2021/06/25 08:14:10;;;;;;;17.08;5.22;;;;;;;;;;5075036;28;20047;-44
2021/06/25 08:16:36;;;;;;;17.10;3.95;;;;;;;;;;5075202;28;20491;-44
2021/06/25 08:19:02;;;;;;;17.33;4.43;;;;;;;;;;5075061;28;20469;-44
2021/06/25 08:21:32;;;;;;;10.70;3.90;;;;;;;;;;5075442;28;20495;-44
2021/06/25 08:23:58;;;;;;;18.02;4.35;;;;;;;;;;5075037;28;20040;-44
2021/06/25 08:26:25;;;;;;;19.33;4.50;;;;;;;;;;5074980;28;20035;-44
2021/06/25 08:28:52;;;;;;;6.38;3.20;;;;;;;;;;5074832;28;20052;-44
2021/06/25 08:31:18;;;;;;;25.92;10.57;;;;;;;;;;5074419;28;20032;-45
2021/06/25 08:33:44;;;;;;;13.27;4.60;;;;;;;;;;5074720;28;20146;-46
2021/06/25 08:36:10;;;;;;;13.35;3.85;;;;;;;;;;5074832;28;20024;-45
2021/06/25 08:38:36;;;;;;;15.75;4.75;;;;;;;;;;5074562;28;20425;-50
2021/06/25 08:41:03;;;;;;;18.40;7.22;;;;;;;;;;5074337;28;20023;-45
2021/06/25 08:43:29;;;;;;;14.95;5.88;;;;;;;;;;5057283;28;20041;-44
2021/06/25 08:45:55;;;;;;;11.48;4.53;;;;;;;;;;5053897;28;20033;-45
2021/06/25 08:48:24;;;;;;;22.17;7.40;;;;;;;;;;5053638;28;20021;-43
2021/06/25 08:50:53;;;;;;;17.70;4.63;;;;;;;;;;5053902;28;20032;-43
2021/06/25 08:53:20;;;;;;;11.83;4.83;;;;;;;;;;5053569;28;20489;-44
2021/06/25 08:55:46;;;;;;;19.67;5.65;;;;;;;;;;5053667;28;20446;-44
2021/06/25 08:58:16;;;;;;;17.00;4.55;;;;;;;;;;5053594;28;20024;-43
2021/06/25 09:00:42;;;;;;;12.30;3.70;;;;;;;;;;5053543;28;20036;-44
2021/06/25 09:03:33;;;;;;;13.35;4.15;;;;;;;;;;5066509;28;20169;-42
2021/06/25 09:06:14;;;;;;;15.43;3.80;;;;;;;;;;5074145;28;20439;-44
2021/06/25 09:08:42;;;;;;;16.35;3.40;;;;;;;;;;5072619;28;20516;-44
2021/06/25 09:11:17;;;;;;;17.85;6.28;;;;;;;;;;5073864;28;20020;-44
2021/06/25 09:13:43;;;;;;;16.45;3.80;;;;;;;;;;5073506;28;20049;-43
2021/06/25 09:16:21;;;;;;;24.38;3.58;;;;;;;;;;5073804;28;20028;-43
2021/06/25 09:19:00;;;;;;;12.73;3.90;;;;;;;;;;5073532;28;20082;-44
2021/06/25 09:21:26;;;;;;;18.73;3.80;;;;;;;;;;5073907;28;20025;-44
2021/06/25 09:23:53;;;;;;;10.48;3.30;;;;;;;;;;5073531;28;20547;-44
2021/06/25 09:26:22;;;;;;;18.58;5.90;;;;;;;;;;5073853;28;20028;-42
2021/06/25 09:28:50;;;;;;;13.47;4.13;;;;;;;;;;5073668;28;20099;-45
2021/06/25 09:31:20;;;;;;;14.93;4.13;;;;;;;;;;5073544;28;20025;-45
2021/06/25 09:33:46;;;;;;;;;;;;;;;;;;5073606;28;20028;-45
2021/06/25 09:36:23;;;;;;;16.95;4.30;;;;;;;;;;5073530;28;19979;-44
2021/06/25 09:38:57;;;;;;;11.90;3.70;;;;;;;;;;5073410;28;20102;-43
2021/06/25 09:41:23;;;;;;;10.43;3.00;;;;;;;;;;5073389;28;20115;-43
2021/06/25 09:43:55;;;;;;;10.18;3.67;;;;;;;;;;5051461;28;20083;-43
2021/06/25 09:46:35;;;;;;;12.35;5.38;;;;;;;;;;5052665;28;20424;-43
2021/06/25 09:49:03;;;;;;;13.27;3.42;;;;;;;;;;5051746;28;20115;-43
2021/06/25 09:51:29;;;;;;;10.38;3.05;;;;;;;;;;5052014;28;20432;-43
2021/06/25 09:54:02;;;;;;;10.65;3.22;;;;;;;;;;5052691;28;20481;-43
2021/06/25 09:56:36;;;;;;;12.68;4.22;;;;;;;;;;5053092;28;20531;-43
2021/06/25 10:01:53;;;;;;;21.30;3.95;;;;;;;;;;5063104;28;20036;-43
2021/06/25 10:04:19;;;;;;;;;;;;;;;;;;5070366;28;20048;-44
2021/06/25 10:06:45;;;;;;;15.35;3.85;;;;;;;;;;5068531;28;20261;-45
2021/06/25 10:09:11;;;;;;;14.30;3.92;;;;;;;;;;5065676;28;20024;-45
2021/06/25 10:11:38;;;;;;;16.17;5.85;;;;;;;;;;5069957;28;20411;-44
2021/06/25 10:14:05;;;;;;;13.85;5.10;;;;;;;;;;5067991;28;20040;-43
2021/06/25 10:16:31;;;;;;;15.43;3.83;;;;;;;;;;5072891;28;20400;-43
2021/06/25 10:18:59;;;;;;;23.98;4.00;;;;;;;;;;5072762;28;20077;-44
2021/06/25 10:21:26;;;;;;;11.95;4.00;;;;;;;;;;5072372;28;20525;-44
2021/06/25 10:23:56;;;;;;;12.43;3.95;;;;;;;;;;5072557;28;20134;-44
2021/06/25 10:26:23;;;;;;;10.18;3.20;;;;;;;;;;5072868;28;20161;-43
2021/06/25 10:28:50;;;;;;;16.58;4.05;;;;;;;;;;5072843;28;20044;-44
2021/06/25 10:31:17;;;;;;;19.60;4.35;;;;;;;;;;5065994;28;20082;-44
2021/06/25 10:33:44;;;;;;;15.02;5.00;;;;;;;;;;5055705;28;20028;-45
2021/06/25 10:36:12;;;;;;;16.85;3.22;;;;;;;;;;5066636;28;20016;-45
2021/06/25 10:38:39;;;;;;;9.60;2.97;;;;;;;;;;5066499;28;20027;-45
2021/06/25 10:41:06;;;;;;;13.90;3.38;;;;;;;;;;5069926;28;20032;-44
2021/06/25 10:43:40;;;;;;;8.98;2.92;;;;;;;;;;5068173;28;20029;-43
2021/06/25 10:46:06;;;;;;;17.42;3.50;;;;;;;;;;5069527;28;20025;-44
2021/06/25 10:48:40;;;;;;;12.38;3.53;;;;;;;;;;5067802;28;20024;-42
2021/06/25 10:51:24;;;;;;;14.15;5.03;;;;;;;;;;5050869;28;20023;-43
2021/06/25 10:54:17;;;;;;;15.07;4.47;;;;;;;;;;5066644;28;20020;-44
2021/06/25 10:56:49;;;;;;;23.52;10.95;;;;;;;;;;5071379;28;20488;-44
2021/06/25 10:59:25;;;;;;;19.13;6.38;;;;;;;;;;5072979;28;20020;-44
2021/06/25 11:02:02;;;;;;;11.57;3.72;;;;;;;;;;5072316;28;20104;-44
2021/06/25 11:04:31;;;;;;;14.77;4.68;;;;;;;;;;5070931;28;20106;-43
2021/06/25 11:06:58;;;;;;;16.75;4.00;;;;;;;;;;5072451;28;20500;-45
2021/06/25 11:09:25;;;;;;;12.75;2.97;;;;;;;;;;5072376;28;20032;-44
2021/06/25 11:12:11;;;;;;;22.08;7.65;;;;;;;;;;5072376;28;20052;-44
2021/06/25 11:14:37;;;;;;;16.27;4.40;;;;;;;;;;5070770;28;20480;-44
2021/06/25 11:17:06;;;;;;;16.08;3.67;;;;;;;;;;5069260;28;20029;-44
2021/06/25 11:19:39;;;;;;;15.88;4.65;;;;;;;;;;5072264;28;20020;-45
2021/06/25 11:22:25;;;;;;;16.98;5.85;;;;;;;;;;5072461;28;20156;-44
2021/06/25 11:24:54;;;;;;;15.07;3.15;;;;;;;;;;5072185;28;20056;-46
2021/06/25 11:27:20;;;;;;;14.07;3.67;;;;;;;;;;5072204;28;20025;-45
2021/06/25 11:29:49;;;;;;;16.90;4.32;;;;;;;;;;5072225;28;20035;-45
2021/06/25 11:32:26;;;;;;;15.68;3.35;;;;;;;;;;5073285;28;20047;-44
2021/06/25 11:34:53;;;;;;;24.55;4.25;;;;;;;;;;5075532;28;20100;-44
2021/06/25 11:37:19;;;;;;;15.18;3.70;;;;;;;;;;5075473;28;20055;-44
2021/06/25 11:39:51;;;;;;;16.45;4.63;;;;;;;;;;5075579;28;20048;-44
2021/06/25 11:42:17;;;;;;;15.02;4.00;;;;;;;;;;5075240;28;20071;-44
2021/06/25 11:44:45;;;;;;;12.85;3.70;;;;;;;;;;5075453;28;20111;-41
2021/06/25 11:47:13;;;;;;;61.50;35.00;;;;;;;;;;5074795;28;20035;-43
2021/06/25 11:49:41;;;;;;;93.50;61.33;;;;;;;;;;5075235;28;20149;-43
2021/06/25 11:52:09;;;;;;;19.20;5.88;;;;;;;;;;5075114;28;20017;-43
2021/06/25 11:54:36;;;;;;;31.90;12.43;;;;;;;;;;5075296;28;20016;-44
2021/06/25 11:57:02;;;;;;;27.58;13.02;;;;;;;;;;5073977;28;20530;-44
2021/06/25 11:59:29;;;;;;;22.88;5.70;;;;;;;;;;5073746;28;20032;-43
2021/06/25 12:01:56;;;;;;;18.63;4.00;;;;;;;;;;5069221;28;20099;-43
2021/06/25 12:04:35;;;;;;;17.88;3.67;;;;;;;;;;5070900;28;20039;-44
2021/06/25 12:07:01;;;;;;;16.52;4.00;;;;;;;;;;5070149;28;20017;-44
2021/06/25 12:09:40;;;;;;;18.05;4.13;;;;;;;;;;5073708;28;20021;-42
2021/06/25 12:12:06;;;;;;;19.00;4.25;;;;;;;;;;5051612;28;20376;-44
2021/06/25 12:14:48;;;;;;;17.10;5.30;;;;;;;;;;5071776;28;20433;-43
2021/06/25 12:17:17;;;;;;;22.45;3.60;;;;;;;;;;5073374;28;20032;-43
2021/06/25 12:20:01;;;;;;;19.27;5.20;;;;;;;;;;5070349;28;20448;-43
2021/06/25 12:22:27;;;;;;;21.75;10.73;;;;;;;;;;5075178;28;20104;-43
2021/06/25 12:24:54;;;;;;;15.68;3.90;;;;;;;;;;5073940;28;20074;-42
2021/06/25 12:27:33;;;;;;;18.58;3.53;;;;;;;;;;5071601;28;20021;-43
2021/06/25 12:30:01;;;;;;;25.77;4.13;;;;;;;;;;5073020;28;20341;-44
2021/06/25 12:32:27;;;;;;;13.73;3.60;;;;;;;;;;5070353;28;20017;-44
2021/06/25 12:34:57;;;;;;;15.65;3.58;;;;;;;;;;5070269;28;20043;-43
2021/06/25 12:37:24;;;;;;;20.75;11.43;;;;;;;;;;5070092;28;20395;-44
2021/06/25 12:39:50;;;;;;;49.55;21.60;;;;;;;;;;5072876;28;20029;-44
2021/06/25 12:42:22;;;;;;;133.25;93.88;;;;;;;;;;5074447;28;20029;-44
2021/06/25 12:44:49;;;;;;;80.18;48.40;;;;;;;;;;5074709;28;20116;-44
2021/06/25 12:47:16;;;;;;;82.32;52.38;;;;;;;;;;5074343;28;20476;-44
2021/06/25 12:49:44;;;;;;;288.52;144.63;;;;;;;;;;5074189;28;20481;-44
2021/06/25 12:52:28;;;;;;;40.05;24.10;;;;;;;;;;5074315;28;20021;-44
2021/06/25 12:54:55;;;;;;;34.95;16.27;;;;;;;;;;5074059;28;20021;-44
2021/06/25 12:57:21;;;;;;;25.05;9.95;;;;;;;;;;5072596;28;20817;-43
2021/06/25 12:59:53;;;;;;;16.88;6.90;;;;;;;;;;5072577;28;20043;-44
2021/06/25 13:02:19;;;;;;;62.17;25.02;;;;;;;;;;5074070;28;20074;-44
2021/06/25 13:04:45;;;;;;;37.42;11.88;;;;;;;;;;5074336;28;20037;-44
2021/06/25 13:07:20;;;;;;;44.10;17.52;;;;;;;;;;5074071;28;20033;-44
2021/06/25 13:09:46;;;;;;;176.50;76.55;;;;;;;;;;5074099;28;20480;-44
2021/06/25 13:12:14;;;;;;;295.27;187.23;;;;;;;;;;5073884;28;20146;-44
2021/06/25 13:14:41;;;;;;;189.32;111.75;;;;;;;;;;5059752;28;20045;-44
2021/06/25 13:17:08;;;;;;;208.48;100.88;;;;;;;;;;5053431;28;20024;-42
2021/06/25 13:19:47;;;;;;;30.50;11.05;;;;;;;;;;5053531;28;20458;-44
2021/06/25 13:22:13;;;;;;;53.78;21.92;;;;;;;;;;5051584;28;20495;-43
2021/06/25 13:24:53;;;;;;;18.98;5.25;;;;;;;;;;5053275;28;20095;-43
2021/06/25 13:27:19;;;;;;;;;;;;;;;;;;5052382;28;20103;-43
2021/06/25 13:29:50;;;;;;;31.48;5.80;;;;;;;;;;5053055;28;19927;-44
2021/06/25 13:32:23;;;;;;;45.15;15.00;;;;;;;;;;5051880;28;20067;-43
2021/06/25 13:34:54;;;;;;;35.83;11.77;;;;;;;;;;5053411;28;20060;-43
2021/06/25 13:37:24;;;;;;;29.88;10.27;;;;;;;;;;5052986;28;20112;-45
2021/06/25 13:39:53;;;;;;;23.33;6.68;;;;;;;;;;5050441;28;20017;-43
2021/06/25 13:42:20;;;;;;;34.33;11.32;;;;;;;;;;5053276;28;20052;-43
2021/06/25 13:44:46;;;;;;;21.75;5.40;;;;;;;;;;5052895;28;20476;-43
2021/06/25 13:47:13;;;;;;;20.55;4.80;;;;;;;;;;5052882;28;20013;-42
2021/06/25 13:49:53;;;;;;;18.33;4.68;;;;;;;;;;5052874;28;20103;-44
2021/06/25 13:52:25;;;;;;;31.65;12.38;;;;;;;;;;5051482;28;20063;-44
2021/06/25 13:55:10;;;;;;;66.03;27.70;;;;;;;;;;5049754;28;20044;-42
2021/06/25 13:57:49;;;;;;;25.05;5.43;;;;;;;;;;5051028;28;20074;-43
2021/06/25 14:00:30;;;;;;;113.63;44.78;;;;;;;;;;5050643;28;20025;-43
2021/06/25 14:02:56;;;;;;;66.88;23.40;;;;;;;;;;5050866;28;20025;-43
2021/06/25 14:05:22;;;;;;;115.72;47.20;;;;;;;;;;5052522;28;20025;-43
2021/06/25 14:08:05;;;;;;;209.38;98.82;;;;;;;;;;5052338;28;20013;-43
2021/06/25 14:10:32;;;;;;;89.63;41.40;;;;;;;;;;5052227;28;20075;-42
2021/06/25 14:12:59;;;;;;;100.35;48.10;;;;;;;;;;5052456;28;20031;-43
2021/06/25 14:15:29;;;;;;;191.38;93.18;;;;;;;;;;5052332;28;20060;-43
2021/06/25 14:17:59;;;;;;;44.33;18.33;;;;;;;;;;5052546;28;20345;-43
2021/06/25 14:20:25;;;;;;;34.08;11.40;;;;;;;;;;5052238;28;20022;-43
2021/06/25 14:22:51;;;;;;;91.45;24.80;;;;;;;;;;5052220;28;20040;-43
2021/06/25 14:25:17;;;;;;;35.63;12.27;;;;;;;;;;5052288;28;20032;-43
2021/06/25 14:27:44;;;;;;;31.45;5.25;;;;;;;;;;5052280;28;20017;-45
2021/06/25 14:30:10;;;;;;;20.85;5.20;;;;;;;;;;5052578;28;20373;-44
2021/06/25 14:32:37;;;;;;;23.08;5.38;;;;;;;;;;5052307;28;20019;-44
2021/06/25 14:35:03;;;;;;;21.23;4.47;;;;;;;;;;5052534;28;20021;-44
2021/06/25 14:37:29;;;;;;;18.58;4.00;;;;;;;;;;5052425;28;20040;-42
2021/06/25 14:39:55;;;;;;;19.75;4.40;;;;;;;;;;5052136;28;20025;-45
2021/06/25 14:42:21;;;;;;;20.90;4.13;;;;;;;;;;5052204;28;20104;-43
2021/06/25 14:44:47;;;;;;;21.65;5.03;;;;;;;;;;5052471;28;20067;-43
2021/06/25 14:47:14;;;;;;;19.77;4.32;;;;;;;;;;5052170;28;20072;-43
2021/06/25 14:49:40;;;;;;;38.72;10.20;;;;;;;;;;5049650;28;20032;-42